createdAt,value
2019-02-26T00:01:30.861Z,103062.73
2019-02-26T00:06:25.493Z,103059.19
2019-02-26T00:11:18.757Z,103048.73
2019-02-26T00:16:14.946Z,103050.56
2019-02-26T00:21:06.442Z,103048.72
2019-02-26T00:25:59.427Z,103052.35
2019-02-26T00:30:55.031Z,103040.63
2019-02-26T00:35:50.177Z,103037.81
2019-02-26T00:40:43.252Z,103040.80
2019-02-26T00:45:38.900Z,103034.00
2019-02-26T00:50:34.510Z,103029.08
2019-02-26T00:55:29.334Z,103021.42
2019-02-26T01:00:20.675Z,103024.19
2019-02-26T01:05:15.812Z,103016.20
2019-02-26T01:10:11.626Z,103016.78
2019-02-26T01:15:09.355Z,103014.70
2019-02-26T01:20:05.349Z,103017.72
2019-02-26T01:24:58.432Z,103014.16
2019-02-26T01:29:53.576Z,103017.72
2019-02-26T01:34:47.837Z,103027.10
2019-02-26T01:39:42.974Z,103028.89
2019-02-26T01:44:38.062Z,103024.35
2019-02-26T01:49:30.587Z,103017.48
2019-02-26T01:54:23.427Z,103021.62
2019-02-26T01:59:19.004Z,103024.75
2019-02-26T02:04:12.878Z,103027.25
2019-02-26T02:09:09.315Z,103022.17
2019-02-26T02:14:02.065Z,103014.70
2019-02-26T02:18:58.208Z,103020.24
2019-02-26T02:23:52.859Z,103004.19
2019-02-26T02:28:45.731Z,102997.53
2019-02-26T02:33:38.659Z,102995.87
2019-02-26T02:38:31.566Z,102988.25
2019-02-26T02:43:26.321Z,102978.30
2019-02-26T02:48:19.235Z,102974.73
2019-02-26T02:53:12.598Z,102979.11
2019-02-26T02:58:05.485Z,102958.57
2019-02-26T03:02:58.439Z,102956.89
2019-02-26T03:07:53.557Z,102949.30
2019-02-26T03:12:48.587Z,102947.95
2019-02-26T03:17:42.759Z,102964.11
2019-02-26T03:22:38.547Z,102964.35
2019-02-26T03:27:31.202Z,102959.94
2019-02-26T03:32:25.307Z,102958.26
2019-02-26T03:37:18.220Z,102955.60
2019-02-26T03:42:14.147Z,102955.70
2019-02-26T03:47:06.211Z,102950.48
2019-02-26T03:52:00.165Z,102944.52
2019-02-26T03:56:53.568Z,102940.68
2019-02-26T04:01:46.507Z,102937.86
2019-02-26T04:06:41.230Z,102950.95
2019-02-26T04:11:34.262Z,102937.38
2019-02-26T04:16:27.174Z,102927.41
2019-02-26T04:21:21.109Z,102932.45
2019-02-26T04:26:52.311Z,102930.64
2019-02-26T04:32:37.801Z,102935.25
2019-02-26T04:38:38.424Z,102946.75
2019-02-26T04:44:41.416Z,102946.86
2019-02-26T04:49:36.738Z,102945.09
2019-02-26T04:54:31.196Z,102957.19
2019-02-26T04:59:24.614Z,102961.27
2019-02-26T05:04:17.530Z,102965.52
2019-02-26T05:09:10.616Z,102964.56
2019-02-26T05:14:03.647Z,102961.41
2019-02-26T05:18:58.513Z,102946.41
2019-02-26T05:23:52.418Z,102959.49
2019-02-26T05:28:48.833Z,102964.80
2019-02-26T05:33:41.006Z,102975.58
2019-02-26T05:38:34.930Z,102975.70
2019-02-26T05:43:30.681Z,102971.42
2019-02-26T05:48:25.777Z,102980.34
2019-02-26T05:53:18.275Z,102973.04
2019-02-26T05:58:15.179Z,102980.73
2019-02-26T06:03:07.205Z,102985.72
2019-02-26T06:08:00.832Z,102984.75
2019-02-26T06:12:53.693Z,102995.84
2019-02-26T06:17:48.241Z,103001.09
2019-02-26T06:22:42.580Z,103002.28
2019-02-26T06:27:37.736Z,102996.83
2019-02-26T06:32:34.746Z,102998.59
2019-02-26T06:37:29.097Z,102993.88
2019-02-26T06:42:22.295Z,102999.41
2019-02-26T06:47:15.219Z,103000.55
2019-02-26T06:52:08.438Z,103002.87
2019-02-26T06:57:02.918Z,103000.08
2019-02-26T07:01:56.114Z,102998.42
2019-02-26T07:06:49.098Z,102999.66
2019-02-26T07:11:42.929Z,102993.92
2019-02-26T07:16:39.821Z,103001.80
2019-02-26T07:21:30.635Z,103012.13
2019-02-26T07:26:23.640Z,103008.65
2019-02-26T07:31:16.582Z,103002.58
2019-02-26T07:36:09.515Z,102998.79
2019-02-26T07:41:03.794Z,102997.47
2019-02-26T07:45:57.277Z,102985.95
2019-02-26T07:50:50.785Z,102979.03
2019-02-26T07:55:43.907Z,102976.84
2019-02-26T08:00:37.705Z,102971.95
2019-02-26T08:05:31.615Z,102977.03
2019-02-26T08:10:24.612Z,102976.84
2019-02-26T08:15:17.607Z,102975.12
2019-02-26T08:20:14.301Z,102968.72
2019-02-26T08:25:07.418Z,102970.20
2019-02-26T08:30:00.887Z,102970.09
2019-02-26T08:34:56.801Z,102974.37
2019-02-26T08:39:52.484Z,102968.29
2019-02-26T08:44:51.084Z,102979.33
2019-02-26T08:49:47.450Z,102971.18
2019-02-26T08:54:44.236Z,102961.95
2019-02-26T08:59:42.264Z,102956.98
2019-02-26T09:04:40.819Z,102948.89
2019-02-26T09:09:36.626Z,102953.44
2019-02-26T09:14:37.303Z,102946.62
2019-02-26T09:19:33.175Z,102955.63
2019-02-26T09:24:30.798Z,102945.63
2019-02-26T09:29:27.055Z,102931.77
2019-02-26T09:34:25.960Z,102934.92
2019-02-26T09:39:20.781Z,102945.22
2019-02-26T09:44:19.657Z,102952.07
2019-02-26T09:49:15.642Z,102954.38
2019-02-26T09:54:15.292Z,102953.67
2019-02-26T09:59:14.799Z,102956.22
2019-02-26T10:04:10.784Z,102948.44
2019-02-26T10:09:10.690Z,102953.34
2019-02-26T10:14:07.807Z,102955.67
2019-02-26T10:19:03.606Z,102962.81
2019-02-26T10:24:01.769Z,102963.08
2019-02-26T10:28:59.013Z,102960.84
2019-02-26T10:33:54.689Z,102968.55
2019-02-26T10:38:55.080Z,102963.80
2019-02-26T10:43:51.601Z,102967.17
2019-02-26T10:48:48.168Z,102967.38
2019-02-26T10:53:45.116Z,102955.40
2019-02-26T10:58:41.076Z,102954.50
2019-02-26T11:03:40.874Z,102948.45
2019-02-26T11:08:35.130Z,102945.30
2019-02-26T11:13:31.525Z,102944.24
2019-02-26T11:18:26.042Z,102942.73
2019-02-26T11:23:30.289Z,102942.00
2019-02-26T11:28:20.005Z,102938.43
2019-02-26T11:33:16.017Z,102925.02
2019-02-26T11:38:12.350Z,102915.96
2019-02-26T11:43:12.360Z,102905.84
2019-02-26T11:48:08.776Z,102902.52
2019-02-26T11:53:04.067Z,102900.28
2019-02-26T11:58:00.098Z,102900.77
2019-02-26T12:02:56.001Z,102895.59
2019-02-26T12:07:53.705Z,102888.63
2019-02-26T12:12:51.553Z,102881.74
2019-02-26T12:17:51.631Z,102870.55
2019-02-26T12:22:49.656Z,102863.14
2019-02-26T12:27:46.147Z,102853.09
2019-02-26T12:32:45.501Z,102855.16
2019-02-26T12:37:41.296Z,102844.83
2019-02-26T12:42:37.336Z,102841.93
2019-02-26T12:47:33.181Z,102835.20
2019-02-26T12:52:30.411Z,102831.19
2019-02-26T12:57:28.886Z,102825.27
2019-02-26T13:02:25.636Z,102814.52
2019-02-26T13:07:20.545Z,102803.54
2019-02-26T13:12:20.567Z,102800.90
2019-02-26T13:17:17.253Z,102786.77
2019-02-26T13:22:17.205Z,102792.25
2019-02-26T13:27:10.601Z,102770.19
2019-02-26T13:32:09.029Z,102770.62
2019-02-26T13:37:05.595Z,102765.06
2019-02-26T13:47:00.023Z,102758.01
2019-02-26T13:51:56.575Z,102750.58
2019-02-26T13:56:52.529Z,102739.63
2019-02-26T14:01:48.802Z,102725.51
2019-02-26T14:06:44.819Z,102721.27
2019-02-26T14:11:41.736Z,102724.48
2019-02-26T14:16:38.081Z,102722.95
2019-02-26T14:21:33.898Z,102717.47
2019-02-26T14:26:29.607Z,102711.55
2019-02-26T14:31:26.467Z,102709.58
2019-02-26T14:36:22.220Z,102705.91
2019-02-26T14:41:17.792Z,102695.25
2019-02-26T14:46:17.089Z,102692.53
2019-02-26T14:51:13.277Z,102691.88
2019-02-26T14:56:09.555Z,102681.91
2019-02-26T15:01:06.570Z,102678.95
2019-02-26T15:06:02.953Z,102668.72
2019-02-26T15:11:00.029Z,102661.73
2019-02-26T15:15:56.743Z,102654.14
2019-02-26T15:20:53.268Z,102655.08
2019-02-26T15:25:49.587Z,102652.42
2019-02-26T15:30:48.070Z,102646.16
2019-02-26T15:35:44.736Z,102651.61
2019-02-26T15:40:41.743Z,102647.56
2019-02-26T15:45:34.857Z,102647.54
2019-02-26T15:50:27.954Z,102646.21
2019-02-26T15:55:21.052Z,102644.39
2019-02-26T16:00:19.199Z,102642.95
2019-02-26T16:05:12.395Z,102638.55
2019-02-26T16:10:07.423Z,102646.77
2019-02-26T16:15:00.548Z,102645.57
2019-02-26T16:19:53.673Z,102645.11
2019-02-26T16:24:46.953Z,102643.52
2019-02-26T16:29:40.363Z,102636.59
2019-02-26T16:34:35.087Z,102635.89
2019-02-26T16:39:28.374Z,102633.73
2019-02-26T16:44:22.578Z,102640.08
2019-02-26T16:49:16.668Z,102639.59
2019-02-26T16:54:09.665Z,102639.62
2019-02-26T16:59:07.608Z,102640.12
2019-02-26T17:03:59.772Z,102643.41
2019-02-26T17:08:53.115Z,102649.39
2019-02-26T17:13:46.363Z,102649.27
2019-02-26T17:18:40.574Z,102649.40
2019-02-26T17:23:34.688Z,102651.78
2019-02-26T17:28:28.352Z,102664.49
2019-02-26T17:33:21.733Z,102664.90
2019-02-26T17:38:15.529Z,102660.91
2019-02-26T17:43:10.880Z,102662.05
2019-02-26T17:48:04.480Z,102664.97
2019-02-26T17:52:57.747Z,102668.05
2019-02-26T17:57:51.265Z,102666.61
2019-02-26T18:02:44.424Z,102675.98
2019-02-26T18:07:42.596Z,102675.48
2019-02-26T18:12:36.497Z,102666.98
2019-02-26T18:17:29.828Z,102664.31
2019-02-26T18:22:23.030Z,102665.05
2019-02-26T18:27:15.999Z,102657.42
2019-02-26T18:32:11.057Z,102661.69
2019-02-26T18:37:04.182Z,102663.55
2019-02-26T18:41:59.140Z,102663.61
2019-02-26T18:46:52.499Z,102656.00
2019-02-26T18:51:45.455Z,102658.45
2019-02-26T18:56:39.457Z,102658.17
2019-02-26T19:01:33.198Z,102652.34
2019-02-26T19:06:27.468Z,102650.65
2019-02-26T19:11:20.889Z,102649.47
2019-02-26T19:16:14.055Z,102643.94
2019-02-26T19:21:07.333Z,102647.31
2019-02-26T19:26:00.412Z,102647.14
2019-02-26T19:30:53.586Z,102651.87
2019-02-26T19:35:46.880Z,102649.70
2019-02-26T19:40:43.105Z,102645.77
2019-02-26T19:45:36.182Z,102643.12
2019-02-26T19:50:29.448Z,102636.69
2019-02-26T19:55:26.386Z,102636.46
2019-02-26T20:00:19.859Z,102638.47
2019-02-26T20:05:13.741Z,102624.73
2019-02-26T20:10:08.157Z,102624.08
2019-02-26T20:15:01.300Z,102620.32
2019-02-26T20:19:54.617Z,102619.55
2019-02-26T20:24:47.921Z,102626.80
2019-02-26T20:29:40.975Z,102621.77
2019-02-26T20:34:34.023Z,102628.23
2019-02-26T20:39:27.247Z,102625.30
2019-02-26T20:44:20.367Z,102631.41
2019-02-26T20:49:14.269Z,102631.43
2019-02-26T20:54:11.430Z,102625.66
2019-02-26T20:59:02.403Z,102631.13
2019-02-26T21:03:55.465Z,102629.21
2019-02-26T21:08:48.497Z,102627.56
2019-02-26T21:13:41.496Z,102626.91
2019-02-26T21:18:34.587Z,102623.99
2019-02-26T21:23:28.338Z,102623.60
2019-02-26T21:28:21.369Z,102622.41
2019-02-26T21:33:14.383Z,102619.98
2019-02-26T21:38:07.533Z,102616.13
2019-02-26T21:43:02.438Z,102604.08
2019-02-26T21:47:55.329Z,102607.98
2019-02-26T21:53:03.759Z,102609.73
2019-02-26T21:57:43.050Z,102609.61
2019-02-26T22:02:36.159Z,102613.59
2019-02-26T22:07:29.301Z,102617.97
2019-02-26T22:12:24.203Z,102618.92
2019-02-26T22:17:17.151Z,102613.66
2019-02-26T22:22:10.121Z,102613.48
2019-02-26T22:27:03.050Z,102614.66
2019-02-26T22:31:56.088Z,102611.37
2019-02-26T22:36:48.988Z,102606.47
2019-02-26T22:41:41.885Z,102602.36
2019-02-26T22:46:34.755Z,102606.20
2019-02-26T22:51:28.271Z,102602.76
2019-02-26T22:56:21.895Z,102605.43
2019-02-26T23:01:42.186Z,102603.22
2019-02-26T23:06:35.255Z,102598.50
2019-02-26T23:11:31.532Z,102598.88
2019-02-26T23:16:23.647Z,102599.90
2019-02-26T23:21:17.251Z,102599.83
2019-02-26T23:26:10.447Z,102604.39
2019-02-26T23:31:05.055Z,102606.64
2019-02-26T23:35:58.005Z,102607.33
2019-02-26T23:40:50.990Z,102601.77
2019-02-26T23:45:43.903Z,102602.83
2019-02-26T23:50:37.136Z,102597.89
2019-02-26T23:55:30.044Z,102600.43
